Current Conditions
Clear
Conditions



Pressure
29.99 (inHG) - 1015.62 (mb)
Visibility

10.0 (mimiles) - 16.1 (km)
   Temperature
46  °F
8°C
36  °F
Dewpoint
66  %
 Humidity
   Wind Speed
7  mph
6  kts
11  km/h
3.1  m/s
   Wind Direction
 300°
West North
West
   Airport Data
KBLV
Location Scott AFB / Midamerica 25 mi (40.23 km)
Metar :KBLV 160756Z AUTO 30006KT 10SM CLR 08/02 A2999 RMK AO2 SLP158 T00820016 $
Wed 16th October 01:56 am
   Raw Metar Info
Raw METAR is the most common format in the world for the transmission of observational weather data. It is highly standardized through the International Civil Aviation Organization (ICAO), which allows it to be understood throughout most of the world.
   API Info
Data Provided by
https://www.checkwx.com/weather/KBLV
   © Info
CSS/SVG/PHP scripts were developed by weather34.com for use in the weather34 template © 2015-2019

Guide Info provided by Metar-Wikipedia